createdAt,value
2019-05-02T00:01:49.762Z,98182.69
2019-05-02T00:04:21.243Z,98180.75
2019-05-02T00:07:14.477Z,98179.17
2019-05-02T00:09:48.503Z,98181.45
2019-05-02T00:12:18.551Z,98187.28
2019-05-02T00:14:50.986Z,98183.14
2019-05-02T00:17:25.584Z,98179.29
2019-05-02T00:19:54.541Z,98176.48
2019-05-02T00:22:24.839Z,98175.89
2019-05-02T00:24:55.094Z,98173.23
2019-05-02T00:27:25.365Z,98166.08
2019-05-02T00:29:58.602Z,98167.28
2019-05-02T00:32:28.172Z,98164.61
2019-05-02T00:34:58.809Z,98168.25
2019-05-02T00:37:29.146Z,98163.28
2019-05-02T00:39:59.396Z,98169.45
2019-05-02T00:42:29.648Z,98160.72
2019-05-02T00:44:59.844Z,98160.61
2019-05-02T00:47:42.267Z,98162.30
2019-05-02T00:50:13.905Z,98159.00
2019-05-02T00:52:44.292Z,98158.40
2019-05-02T00:55:14.752Z,98147.75
2019-05-02T00:57:45.352Z,98141.95
2019-05-02T01:00:18.400Z,98147.16
2019-05-02T01:02:56.121Z,98147.16
2019-05-02T01:05:26.403Z,98154.66
2019-05-02T01:08:01.179Z,98152.25
2019-05-02T01:10:28.683Z,98152.48
2019-05-02T01:12:59.281Z,98156.83
2019-05-02T01:15:29.549Z,98148.98
2019-05-02T01:18:01.133Z,98145.69
2019-05-02T01:20:31.830Z,98140.27
2019-05-02T01:23:02.528Z,98142.53
2019-05-02T01:25:33.934Z,98140.11
2019-05-02T01:28:12.766Z,98146.62
2019-05-02T01:31:00.711Z,98148.19
2019-05-02T01:33:49.923Z,98150.50
2019-05-02T01:36:28.631Z,98148.78
2019-05-02T01:39:02.886Z,98149.73
2019-05-02T01:41:32.338Z,98152.98
2019-05-02T01:44:02.553Z,98148.73
2019-05-02T01:46:33.158Z,98147.84
2019-05-02T01:49:03.433Z,98151.09
2019-05-02T01:51:36.756Z,98153.50
2019-05-02T01:54:10.139Z,98153.24
2019-05-02T01:56:39.038Z,98153.24
2019-05-02T01:59:09.326Z,98151.80
2019-05-02T02:01:39.581Z,98150.23
2019-05-02T02:04:09.784Z,98152.15
2019-05-02T02:06:43.274Z,98152.89
2019-05-02T02:09:12.176Z,98149.30
2019-05-02T02:11:42.372Z,98143.17
2019-05-02T02:14:16.128Z,98141.37
2019-05-02T02:19:46.686Z,98122.34
2019-05-02T02:22:39.368Z,98122.67
2019-05-02T02:25:32.185Z,98125.39
2019-05-02T02:28:01.018Z,98129.36
2019-05-02T02:30:31.390Z,98137.47
2019-05-02T02:33:07.427Z,98136.59
2019-05-02T02:35:34.249Z,98142.16
2019-05-02T02:38:05.767Z,98144.83
2019-05-02T02:40:36.177Z,98146.88
2019-05-02T02:43:30.336Z,98145.89
2019-05-02T02:45:51.788Z,98145.29
2019-05-02T02:48:21.645Z,98144.80
2019-05-02T02:50:51.982Z,98147.98
2019-05-02T02:53:32.529Z,98144.66
2019-05-02T02:56:04.325Z,98144.68
2019-05-02T02:58:44.111Z,98149.07
2019-05-02T03:01:06.672Z,98142.92
2019-05-02T03:03:37.039Z,98142.79
2019-05-02T03:06:08.285Z,98140.52
2019-05-02T03:08:46.110Z,98138.20
2019-05-02T03:11:22.378Z,98136.62
2019-05-02T03:14:07.359Z,98136.62
2019-05-02T03:16:45.582Z,98151.48
2019-05-02T03:19:08.268Z,98147.32
2019-05-02T03:21:41.089Z,98145.48
2019-05-02T03:24:11.476Z,98147.89
2019-05-02T03:26:41.765Z,98142.89
2019-05-02T03:29:12.109Z,98144.47
2019-05-02T03:31:42.493Z,98140.23
2019-05-02T03:34:12.816Z,98134.55
2019-05-02T03:36:43.385Z,98136.95
2019-05-02T03:39:17.071Z,98140.30
2019-05-02T03:41:46.014Z,98136.04
2019-05-02T03:44:25.169Z,98140.13
2019-05-02T03:46:54.151Z,98138.19
2019-05-02T03:49:20.326Z,98134.55
2019-05-02T03:51:55.800Z,98134.40
2019-05-02T03:54:23.190Z,98136.19
2019-05-02T03:56:54.811Z,98135.31
2019-05-02T03:59:37.153Z,98132.66
2019-05-02T04:01:58.955Z,98136.88
2019-05-02T04:04:31.549Z,98124.63
2019-05-02T04:07:03.778Z,98130.30
2019-05-02T04:09:42.005Z,98128.03
2019-05-02T04:12:11.811Z,98123.07
2019-05-02T04:14:40.071Z,98123.88
2019-05-02T04:17:11.961Z,98130.75
2019-05-02T04:19:42.930Z,98134.34
2019-05-02T04:22:14.158Z,98132.66
2019-05-02T04:24:47.729Z,98141.95
2019-05-02T04:27:18.367Z,98138.13
2019-05-02T04:29:50.038Z,98141.37
2019-05-02T04:32:20.366Z,98142.47
2019-05-02T04:34:55.080Z,98140.56
2019-05-02T04:37:23.480Z,98148.66
2019-05-02T04:39:58.180Z,98140.88
2019-05-02T04:42:29.086Z,98151.56
2019-05-02T04:45:16.261Z,98148.02
2019-05-02T04:47:30.846Z,98139.39
2019-05-02T04:50:07.693Z,98141.09
2019-05-02T04:52:38.494Z,98138.00
2019-05-02T04:55:19.966Z,98134.03
2019-05-02T04:57:46.834Z,98132.02
2019-05-02T05:00:12.125Z,98134.81
2019-05-02T05:02:42.716Z,98133.16
2019-05-02T05:05:17.268Z,98134.64
2019-05-02T05:07:46.493Z,98128.63
2019-05-02T05:10:18.558Z,98132.88
2019-05-02T05:12:48.978Z,98142.33
2019-05-02T05:15:35.516Z,98136.52
2019-05-02T05:17:51.663Z,98139.81
2019-05-02T05:20:22.442Z,98140.30
2019-05-02T05:22:53.160Z,98140.52
2019-05-02T05:25:29.327Z,98139.43
2019-05-02T05:28:05.647Z,98143.42
2019-05-02T05:30:31.966Z,98145.48
2019-05-02T05:33:02.255Z,98144.75
2019-05-02T05:35:32.836Z,98151.06
2019-05-02T05:38:03.105Z,98153.61
2019-05-02T05:40:33.337Z,98153.86
2019-05-02T05:43:13.642Z,98163.91
2019-05-02T05:45:48.631Z,98159.91
2019-05-02T05:48:08.399Z,98161.00
2019-05-02T05:50:41.406Z,98156.03
2019-05-02T05:53:12.496Z,98160.17
2019-05-02T05:55:42.559Z,98157.97
2019-05-02T05:58:15.816Z,98158.93
2019-05-02T06:00:50.237Z,98157.45
2019-05-02T06:03:18.063Z,98157.05
2019-05-02T06:05:48.348Z,98154.11
2019-05-02T06:08:19.928Z,98160.11
2019-05-02T06:10:50.709Z,98151.84
2019-05-02T06:13:20.944Z,98148.27
2019-05-02T06:16:02.067Z,98148.27
2019-05-02T06:18:23.947Z,98144.13
2019-05-02T06:20:54.527Z,98146.14
2019-05-02T06:23:25.202Z,98137.64
2019-05-02T06:25:55.934Z,98134.31
2019-05-02T06:28:26.175Z,98131.56
2019-05-02T06:30:56.442Z,98132.42
2019-05-02T06:33:30.551Z,98133.37
2019-05-02T06:36:01.467Z,98135.52
2019-05-02T06:38:30.932Z,98142.01
2019-05-02T06:41:01.206Z,98146.05
2019-05-02T06:43:31.409Z,98142.75
2019-05-02T06:46:14.933Z,98140.67
2019-05-02T06:48:34.281Z,98143.14
2019-05-02T06:51:04.541Z,98139.44
2019-05-02T06:53:35.242Z,98142.32
2019-05-02T06:56:08.034Z,98142.46
2019-05-02T06:58:42.097Z,98136.20
2019-05-02T07:01:11.351Z,98138.33
2019-05-02T07:03:46.150Z,98133.16
2019-05-02T07:06:13.455Z,98132.83
2019-05-02T07:08:43.740Z,98131.19
2019-05-02T07:11:14.009Z,98129.59
2019-05-02T07:13:44.609Z,98126.32
2019-05-02T07:16:38.508Z,98123.15
2019-05-02T07:19:27.436Z,98076.27
2019-05-02T07:21:58.644Z,98111.70
2019-05-02T07:24:30.872Z,98104.48
2019-05-02T07:27:02.332Z,98098.17
2019-05-02T07:29:33.456Z,98095.72
2019-05-02T07:32:03.899Z,98095.47
2019-05-02T07:34:34.505Z,98099.33
2019-05-02T07:37:08.412Z,98089.66
2019-05-02T07:39:40.875Z,98090.33
2019-05-02T07:42:08.592Z,98088.01
2019-05-02T07:44:38.906Z,98093.75
2019-05-02T07:47:09.135Z,98087.66
2019-05-02T07:49:39.341Z,98081.19
2019-05-02T07:52:10.195Z,98082.99
2019-05-02T07:54:40.547Z,98082.51
2019-05-02T07:57:10.851Z,98079.73
2019-05-02T07:59:41.436Z,98079.34
2019-05-02T08:02:11.968Z,98078.70
2019-05-02T08:04:43.594Z,98074.82
2019-05-02T08:07:16.294Z,98085.45
2019-05-02T08:09:46.007Z,98089.09
2019-05-02T08:12:17.903Z,98090.40
2019-05-02T08:14:48.266Z,98085.59
2019-05-02T08:17:19.338Z,98087.11
2019-05-02T08:19:50.209Z,98084.97
2019-05-02T08:22:20.928Z,98082.50
2019-05-02T08:24:51.126Z,98084.31
2019-05-02T08:27:40.613Z,98085.88
2019-05-02T08:30:19.898Z,98089.94
2019-05-02T08:32:50.292Z,98092.35
2019-05-02T08:35:20.587Z,98091.23
2019-05-02T08:37:50.864Z,98092.89
2019-05-02T08:40:21.130Z,98094.59
2019-05-02T08:42:51.392Z,98093.89
2019-05-02T08:45:22.096Z,98101.59
2019-05-02T08:47:52.355Z,98096.48
2019-05-02T08:50:27.163Z,98091.70
2019-05-02T08:52:54.850Z,98092.05
2019-05-02T08:55:25.551Z,98089.14
2019-05-02T08:57:55.806Z,98093.99
2019-05-02T09:00:26.165Z,98090.86
2019-05-02T09:03:01.986Z,98091.38
2019-05-02T09:05:28.890Z,98084.05
2019-05-02T09:07:59.430Z,98081.61
2019-05-02T09:10:29.749Z,98076.03
2019-05-02T09:13:00.005Z,98075.80
2019-05-02T09:15:31.760Z,98076.98
2019-05-02T09:18:03.185Z,98074.42
2019-05-02T09:20:33.518Z,98072.27
2019-05-02T09:23:03.762Z,98067.98
2019-05-02T09:25:33.952Z,98072.87
2019-05-02T09:28:04.612Z,98072.12
2019-05-02T09:30:35.231Z,98067.81
2019-05-02T09:33:06.785Z,98065.69
2019-05-02T09:35:37.813Z,98063.48
2019-05-02T09:38:08.445Z,98057.96
2019-05-02T09:40:38.653Z,98056.32
2019-05-02T09:43:08.917Z,98054.57
2019-05-02T09:45:41.182Z,98056.55
2019-05-02T09:48:12.583Z,98050.83
2019-05-02T09:50:42.958Z,98046.84
2019-05-02T09:53:20.528Z,98046.23
2019-05-02T09:55:50.204Z,98051.59
2019-05-02T09:58:21.296Z,98048.29
2019-05-02T10:01:07.224Z,98041.81
2019-05-02T10:03:37.427Z,98038.42
2019-05-02T10:06:13.959Z,98039.86
2019-05-02T10:08:43.566Z,98038.73
2019-05-02T10:11:17.035Z,98035.47
2019-05-02T10:13:44.642Z,98030.36
2019-05-02T10:16:18.089Z,98033.30
2019-05-02T10:18:47.215Z,98030.70
2019-05-02T10:21:17.639Z,98019.41
2019-05-02T10:23:51.764Z,98013.11
2019-05-02T10:26:24.171Z,98014.45
2019-05-02T10:28:53.401Z,98013.27
2019-05-02T10:31:27.515Z,98006.46
2019-05-02T10:33:56.081Z,98012.83
2019-05-02T10:36:26.676Z,98009.64
2019-05-02T10:38:59.229Z,98008.15
2019-05-02T10:41:31.765Z,98010.45
2019-05-02T10:44:02.234Z,98002.06
2019-05-02T10:46:42.902Z,97997.78
2019-05-02T10:49:25.177Z,98001.63
2019-05-02T10:51:56.452Z,97999.46
2019-05-02T10:54:28.038Z,97988.59
2019-05-02T10:56:58.855Z,97996.84
2019-05-02T10:59:29.151Z,97988.77
2019-05-02T11:02:17.340Z,97993.77
2019-05-02T11:04:52.526Z,97982.02
2019-05-02T11:07:26.381Z,97979.22
2019-05-02T11:09:57.359Z,97984.73
2019-05-02T11:12:44.143Z,97982.70
2019-05-02T11:15:29.554Z,97980.16
2019-05-02T11:18:02.307Z,97979.73
2019-05-02T11:20:33.483Z,97980.26
2019-05-02T11:23:03.742Z,97980.44
2019-05-02T11:25:34.007Z,97984.77
2019-05-02T11:28:07.064Z,97998.32
2019-05-02T11:30:38.339Z,97994.85
2019-05-02T11:33:08.634Z,98001.55
2019-05-02T11:35:41.637Z,98000.53
2019-05-02T11:38:13.290Z,98001.27
2019-05-02T11:40:42.716Z,98016.03
2019-05-02T11:43:13.219Z,98023.19
2019-05-02T11:45:43.393Z,98019.48
2019-05-02T11:48:14.078Z,98029.39
2019-05-02T11:50:44.425Z,98033.79
2019-05-02T11:53:23.199Z,98034.55
2019-05-02T11:55:47.564Z,98051.56
2019-05-02T11:58:17.807Z,98057.33
2019-05-02T12:00:49.800Z,98059.59
2019-05-02T12:03:28.150Z,98070.84
2019-05-02T12:05:58.868Z,98067.67
2019-05-02T12:08:31.916Z,98082.27
2019-05-02T12:11:03.901Z,98093.63
2019-05-02T12:13:35.643Z,98086.16
2019-05-02T12:16:08.616Z,98092.86
2019-05-02T12:18:39.012Z,98098.77
2019-05-02T12:21:09.246Z,98103.81
2019-05-02T12:23:41.680Z,98104.62
2019-05-02T12:26:12.378Z,98110.83
2019-05-02T12:28:43.681Z,98104.91
2019-05-02T12:31:27.995Z,98111.11
2019-05-02T12:34:00.263Z,98108.27
2019-05-02T12:36:30.576Z,98112.05
2019-05-02T12:39:02.480Z,98103.86
2019-05-02T12:41:33.722Z,98096.16
2019-05-02T12:44:04.136Z,98101.64
2019-05-02T12:46:34.753Z,98103.09
2019-05-02T12:49:06.525Z,98100.40
2019-05-02T12:51:37.050Z,98090.32
2019-05-02T12:54:07.675Z,98089.68
2019-05-02T12:56:37.926Z,98086.30
2019-05-02T12:59:08.213Z,98080.37
2019-05-02T13:01:38.491Z,98082.92
2019-05-02T13:04:12.418Z,98072.16
2019-05-02T13:06:42.990Z,98073.52
2019-05-02T13:09:13.991Z,98067.28
2019-05-02T13:11:56.544Z,98063.04
2019-05-02T13:14:31.898Z,98059.70
2019-05-02T13:17:05.848Z,98059.34
2019-05-02T13:19:40.052Z,98053.77
2019-05-02T13:22:28.762Z,98057.78
2019-05-02T13:25:05.653Z,98057.20
2019-05-02T13:27:43.390Z,98056.84
2019-05-02T13:30:12.436Z,98054.50
2019-05-02T13:32:48.081Z,98052.34
2019-05-02T13:35:24.724Z,98044.20
2019-05-02T13:37:57.218Z,98047.03
2019-05-02T13:40:34.265Z,98034.33
2019-05-02T13:43:04.463Z,98039.93
2019-05-02T13:45:59.872Z,98038.64
2019-05-02T13:48:32.167Z,98025.21
2019-05-02T13:51:03.950Z,98017.68
2019-05-02T13:53:36.046Z,98010.03
2019-05-02T13:56:24.619Z,98003.61
2019-05-02T13:58:54.923Z,98003.30
2019-05-02T14:01:25.255Z,98005.52
2019-05-02T14:03:55.876Z,97996.64
2019-05-02T14:06:29.753Z,97987.41
2019-05-02T14:09:07.924Z,97982.86
2019-05-02T14:11:49.428Z,97980.48
2019-05-02T14:14:19.628Z,97980.55
2019-05-02T14:16:50.018Z,97970.59
2019-05-02T14:19:22.076Z,97970.53
2019-05-02T14:21:52.325Z,97972.83
2019-05-02T14:24:23.192Z,97962.75
2019-05-02T14:26:53.466Z,97963.04
2019-05-02T14:29:23.764Z,97959.66
2019-05-02T14:31:54.017Z,97958.41
2019-05-02T14:34:32.820Z,97966.86
2019-05-02T14:37:03.194Z,97962.03
2019-05-02T14:39:33.991Z,97959.52
2019-05-02T14:42:04.184Z,97971.65
2019-05-02T14:45:01.538Z,97962.17
2019-05-02T14:47:10.103Z,97950.00
2019-05-02T14:49:39.386Z,97953.27
2019-05-02T14:52:09.940Z,97956.66
2019-05-02T14:54:44.007Z,97943.83
2019-05-02T14:57:17.259Z,97940.89
2019-05-02T14:59:50.372Z,97937.33
2019-05-02T15:02:47.207Z,97936.67
2019-05-02T15:05:12.841Z,97935.42
2019-05-02T15:07:44.032Z,97932.08
2019-05-02T15:10:14.288Z,97936.61
2019-05-02T15:12:44.572Z,97942.06
2019-05-02T15:15:15.040Z,97933.34
2019-05-02T15:17:45.323Z,97939.20
2019-05-02T15:20:15.724Z,97926.54
2019-05-02T15:22:46.265Z,97926.54
2019-05-02T15:25:18.034Z,97928.57
2019-05-02T15:27:49.896Z,97922.03
2019-05-02T15:30:20.851Z,97926.68
2019-05-02T15:33:12.388Z,97915.17
2019-05-02T15:35:57.264Z,97910.00
2019-05-02T15:38:28.241Z,97907.97
2019-05-02T15:41:03.788Z,97924.81
2019-05-02T15:43:31.791Z,97920.14
2019-05-02T15:46:02.110Z,97918.09
2019-05-02T15:48:32.464Z,97919.08
2019-05-02T15:51:06.206Z,97919.38
2019-05-02T15:54:05.904Z,97909.84
2019-05-02T15:56:35.665Z,97902.78
2019-05-02T15:59:06.381Z,97903.70
2019-05-02T16:01:57.219Z,97895.13
2019-05-02T16:04:33.122Z,97894.84
2019-05-02T16:07:06.935Z,97888.15
2019-05-02T16:09:35.273Z,97890.14
2019-05-02T16:12:06.301Z,97892.66
2019-05-02T16:14:36.906Z,97885.32
2019-05-02T16:17:07.248Z,97880.59
2019-05-02T16:19:42.724Z,97877.64
2019-05-02T16:22:17.762Z,97890.39
2019-05-02T16:24:50.923Z,97889.37
2019-05-02T16:27:25.420Z,97877.13
2019-05-02T16:29:58.330Z,97871.28
2019-05-02T16:32:44.626Z,97867.84
2019-05-02T16:35:17.487Z,97877.26
2019-05-02T16:37:52.366Z,97879.41
2019-05-02T16:40:22.080Z,97878.92
2019-05-02T16:42:52.021Z,97895.86
2019-05-02T16:45:22.822Z,97912.39
2019-05-02T16:47:58.583Z,97913.89
2019-05-02T16:50:27.555Z,97913.64
2019-05-02T16:52:57.688Z,97917.70
2019-05-02T16:55:28.313Z,97922.69
2019-05-02T16:58:04.808Z,97967.65
2019-05-02T17:00:32.050Z,97999.77
2019-05-02T17:03:03.884Z,97996.45
2019-05-02T17:05:34.574Z,98000.55
2019-05-02T17:08:20.006Z,97993.19
2019-05-02T17:11:14.191Z,98009.84
2019-05-02T17:13:43.173Z,98000.10
2019-05-02T17:16:17.317Z,97996.59
2019-05-02T17:18:48.293Z,98001.09
2019-05-02T17:21:19.740Z,98007.43
2019-05-02T17:23:52.309Z,98008.84
2019-05-02T17:26:22.797Z,98010.39
2019-05-02T17:28:53.209Z,98020.16
2019-05-02T17:31:23.490Z,98028.63
2019-05-02T17:33:54.943Z,98030.44
2019-05-02T17:36:28.547Z,98028.84
2019-05-02T17:38:59.440Z,98030.36
2019-05-02T17:41:29.299Z,98029.53
2019-05-02T17:44:00.027Z,98030.61
2019-05-02T17:46:30.369Z,98021.35
2019-05-02T17:49:02.520Z,98018.72
2019-05-02T17:51:51.992Z,98030.51
2019-05-02T17:54:26.146Z,98031.34
2019-05-02T17:56:57.415Z,98028.41
2019-05-02T17:59:28.365Z,98024.39
2019-05-02T18:01:58.745Z,98021.66
2019-05-02T18:04:29.822Z,98010.41
2019-05-02T18:07:00.153Z,98009.36
2019-05-02T18:09:34.861Z,98011.61
2019-05-02T18:12:07.239Z,98017.94
2019-05-02T18:14:35.078Z,98020.58
2019-05-02T18:17:05.708Z,98026.94
2019-05-02T18:19:36.276Z,98024.78
2019-05-02T18:22:14.890Z,98033.38
2019-05-02T18:24:42.759Z,98036.65
2019-05-02T18:27:12.901Z,98040.25
2019-05-02T18:29:45.593Z,98045.11
2019-05-02T18:32:17.549Z,98044.48
2019-05-02T18:34:48.966Z,98039.75
2019-05-02T18:37:19.617Z,98034.53
2019-05-02T18:39:55.885Z,98038.34
2019-05-02T18:42:25.628Z,98038.75
2019-05-02T18:44:56.217Z,98038.91
2019-05-02T18:47:27.464Z,98039.63
2019-05-02T18:50:02.036Z,98047.70
2019-05-02T18:52:36.396Z,98044.05
2019-05-02T18:55:02.058Z,98038.48
2019-05-02T18:57:33.337Z,98040.50
2019-05-02T19:00:04.985Z,98040.50
2019-05-02T19:02:36.488Z,98042.34
2019-05-02T19:05:13.419Z,98043.05
2019-05-02T19:07:39.480Z,98053.67
2019-05-02T19:10:11.940Z,98052.83
2019-05-02T19:12:42.480Z,98055.50
2019-05-02T19:15:13.100Z,98058.31
2019-05-02T19:17:43.823Z,98063.13
2019-05-02T19:20:56.355Z,98060.99
2019-05-02T19:23:24.173Z,98055.21
2019-05-02T19:25:55.576Z,98059.39
2019-05-02T19:28:34.692Z,98056.34
2019-05-02T19:31:06.562Z,98065.22
2019-05-02T19:33:37.528Z,98056.73
2019-05-02T19:36:06.344Z,98056.73
2019-05-02T19:38:36.610Z,98054.56
2019-05-02T19:41:09.095Z,98052.60
2019-05-02T19:43:40.351Z,98055.83
2019-05-02T19:46:12.135Z,98057.13
2019-05-02T19:48:43.054Z,98063.95
2019-05-02T19:51:18.678Z,98059.51
2019-05-02T19:53:46.417Z,98059.80
2019-05-02T19:56:18.118Z,98067.48
2019-05-02T19:58:48.874Z,98068.45
2019-05-02T20:01:22.942Z,98069.08
2019-05-02T20:03:52.023Z,98069.16
2019-05-02T20:06:22.628Z,98069.74
2019-05-02T20:08:58.889Z,98072.67
2019-05-02T20:11:28.003Z,98066.98
2019-05-02T20:14:00.666Z,98070.08
2019-05-02T20:16:44.198Z,98071.07
2019-05-02T20:19:12.528Z,98077.84
2019-05-02T20:21:48.396Z,98076.07
2019-05-02T20:24:19.581Z,98075.78
2019-05-02T20:26:52.409Z,98074.65
2019-05-02T20:29:21.895Z,98071.47
2019-05-02T20:31:52.094Z,98084.13
2019-05-02T20:34:22.418Z,98073.38
2019-05-02T20:36:52.670Z,98081.62
2019-05-02T20:39:23.024Z,98085.00
2019-05-02T20:41:53.239Z,98076.61
2019-05-02T20:44:23.548Z,98078.66
2019-05-02T20:46:53.806Z,98078.38
2019-05-02T20:49:24.637Z,98075.08
2019-05-02T20:51:55.498Z,98079.64
2019-05-02T20:54:25.997Z,98080.08
2019-05-02T20:56:56.322Z,98076.62
2019-05-02T20:59:26.956Z,98070.44
2019-05-02T21:01:57.748Z,98074.71
2019-05-02T21:04:28.019Z,98071.91
2019-05-02T21:07:14.751Z,98075.92
2019-05-02T21:10:19.840Z,98066.90
2019-05-02T21:12:52.619Z,98071.63
2019-05-02T21:15:24.092Z,98070.08
2019-05-02T21:17:54.444Z,98070.78
2019-05-02T21:20:25.010Z,98070.02
2019-05-02T21:22:55.261Z,98072.54
2019-05-02T21:25:25.826Z,98066.69
2019-05-02T21:27:56.117Z,98069.86
2019-05-02T21:30:27.663Z,98073.03
2019-05-02T21:32:57.889Z,98071.78
2019-05-02T21:35:28.749Z,98068.40
2019-05-02T21:37:59.061Z,98069.36
2019-05-02T21:40:29.328Z,98064.46
2019-05-02T21:42:59.608Z,98061.62
2019-05-02T21:45:31.658Z,98064.80
2019-05-02T21:48:02.382Z,98062.75
2019-05-02T21:50:42.743Z,98060.98
2019-05-02T21:53:55.024Z,98060.94
2019-05-02T21:56:21.937Z,98058.67
2019-05-02T21:59:12.236Z,98059.80
2019-05-02T22:01:51.890Z,98058.46
2019-05-02T22:04:24.376Z,98062.75
2019-05-02T22:06:54.604Z,98061.41
2019-05-02T22:09:24.950Z,98058.37
2019-05-02T22:11:55.152Z,98066.17
2019-05-02T22:14:25.514Z,98065.68
2019-05-02T22:16:55.742Z,98071.25
2019-05-02T22:19:26.142Z,98069.20
2019-05-02T22:21:56.398Z,98071.16
2019-05-02T22:24:26.773Z,98068.77
2019-05-02T22:26:58.494Z,98070.73
2019-05-02T22:29:28.726Z,98073.31
2019-05-02T22:31:59.001Z,98079.81
2019-05-02T22:34:29.531Z,98079.99
2019-05-02T22:37:01.863Z,98086.27
2019-05-02T22:39:55.585Z,98079.03
2019-05-02T22:42:27.444Z,98084.00
2019-05-02T22:44:57.775Z,98077.60
2019-05-02T22:47:28.031Z,98076.95
2019-05-02T22:49:58.504Z,98079.56
2019-05-02T22:52:29.088Z,98080.05
2019-05-02T22:54:59.337Z,98082.73
2019-05-02T22:57:31.809Z,98083.07
2019-05-02T23:00:02.623Z,98086.98
2019-05-02T23:02:34.706Z,98081.64
2019-05-02T23:05:06.391Z,98084.96
2019-05-02T23:07:37.046Z,98078.98
2019-05-02T23:10:08.124Z,98077.37
2019-05-02T23:12:38.394Z,98076.72
2019-05-02T23:15:09.165Z,98076.59
2019-05-02T23:17:39.532Z,98071.03
2019-05-02T23:20:10.140Z,98074.70
2019-05-02T23:22:41.827Z,98076.21
2019-05-02T23:25:32.244Z,98077.77
2019-05-02T23:28:07.053Z,98081.55
2019-05-02T23:30:37.306Z,98075.49
2019-05-02T23:33:07.562Z,98076.61
2019-05-02T23:35:38.968Z,98085.12
2019-05-02T23:38:09.377Z,98080.39
2019-05-02T23:40:41.981Z,98074.06
2019-05-02T23:43:12.516Z,98076.29
2019-05-02T23:45:43.080Z,98082.97
2019-05-02T23:48:13.345Z,98083.46
2019-05-02T23:50:43.550Z,98075.83
2019-05-02T23:53:13.786Z,98072.93
2019-05-02T23:55:44.080Z,98078.67
2019-05-02T23:58:14.385Z,98079.78
